Jomi — C6VK4 — position and weather

sailwx.info

Track history (hours):
 
Tides and Currents Weather Stations Pressure Air Temp Water Temp Dewpoint Dewpoint Depression Visibility Wind Speed Wind Dir Waves Ship Positions

Jomi

Last reported at 2015-Mar-30 05:32 UTC. Time now 2015-Apr-02 06:36 UTC.
Position N 59°28' E 005°13'.

Length 88 m; draft 4.2 m.

Type: Cargo ship. MMSI: 309701000.

Date/timePositionNaut miles runAvg speedWind from/ knotsBaromVisibWave heightAir tempDewpointWater temp
2015-Mar-30 05:32N 59°28' E 005°13'1310.8
2015-Mar-30 04:17N 59°15' E 005°21'810.4
2015-Mar-30 03:33N 59°07' E 005°21'9 9.2
2015-Mar-30 02:33N 59°09' E 005°04'1110.7
2015-Mar-30 01:32N 59°16' E 004°47'2 0.2
2015-Mar-29 12:19N 59°17' E 004°43'7 9.3
2015-Mar-29 11:33N 59°10' E 004°47'9 8.9
2015-Mar-29 10:33N 59°02' E 004°57'9 8.9
2015-Mar-29 09:33N 58°55' E 005°06'9 9.2
2015-Mar-29 08:33N 58°47' E 005°15'1010.2
2015-Mar-29 07:33N 58°38' E 005°26'1110.7
2015-Mar-29 06:33N 58°30' E 005°37'1010.2
2015-Mar-29 05:33N 58°22' E 005°51'1010.4
2015-Mar-29 04:33N 58°15' E 006°05'1110.7
2015-Mar-29 03:32N 58°08' E 006°21'137 8.5
2015-Mar-28 11:26N 57°48' E 010°37'6 7.1
2015-Mar-28 10:33N 57°42' E 010°41'2 1.7
2015-Mar-28 09:10N 57°42' E 010°36'3 3.0
2015-Mar-28 08:16N 57°42' E 010°41'811.1
2015-Mar-28 07:33N 57°38' E 010°54'1212.2
2015-Mar-28 06:33N 57°32' E 011°14'1110.8
2015-Mar-28 05:33N 57°24' E 011°28'1110.5
2015-Mar-28 04:33N 57°15' E 011°35'1010.4
2015-Mar-28 03:33N 57°05' E 011°41'1010.2
2015-Mar-28 02:33N 56°55' E 011°47'10 9.5
2015-Mar-28 01:33N 56°46' E 011°54'1010.1
2015-Mar-28 00:33N 56°37' E 011°58'10 9.8
2015-Mar-27 23:33N 56°28' E 012°07'1010.3
2015-Mar-27 22:33N 56°20' E 012°18'1010.5
2015-Mar-27 21:33N 56°11' E 012°29'1110.8
2015-Mar-27 20:33N 56°02' E 012°40'10 9.8
2015-Mar-27 19:33N 55°53' E 012°44'1110.6
2015-Mar-27 18:33N 55°42' E 012°41'1010.1
2015-Mar-27 17:33N 55°32' E 012°43'1010.2
2015-Mar-27 16:33N 55°29' E 012°26'8 7.9
2015-Mar-27 15:31N 55°27' E 012°12'0 0.0
2015-Mar-27 14:25N 55°27' E 012°12'0 0.0
2015-Mar-27 13:31N 55°27' E 012°12'0 0.0
2015-Mar-27 12:31N 55°27' E 012°12'0 0.2
2015-Mar-27 11:33N 55°27' E 012°12'0 0.3
2015-Mar-27 10:33N 55°27' E 012°12'0 0.0
2015-Mar-27 09:24N 55°27' E 012°12'0 0.0
2015-Mar-27 08:33N 55°27' E 012°12'0 0.0
2015-Mar-27 07:27N 55°27' E 012°12'0 0.0
2015-Mar-27 05:28N 55°27' E 012°12'3 3.3
2015-Mar-27 04:33N 55°27' E 012°17'6 5.9
2015-Mar-27 03:33N 55°26' E 012°27'5 5.1
2015-Mar-27 02:33N 55°28' E 012°35'6 6.2
2015-Mar-27 01:33N 55°33' E 012°42'8 8.0
2015-Mar-27 00:33N 55°41' E 012°41'1010.0
2015-Mar-26 23:33N 55°51' E 012°40'1010.0
2015-Mar-26 22:33N 56°01' E 012°38'9 9.3
2015-Mar-26 21:33N 56°08' E 012°28'10 9.6
2015-Mar-26 20:33N 56°18' E 012°23'1010.4
2015-Mar-26 19:33N 56°27' E 012°29'1110.5
2015-Mar-26 18:33N 56°35' E 012°43'6 6.3
2015-Mar-26 17:31N 56°39' E 012°51'0 0.0
2015-Mar-25 17:10N 56°39' E 012°51'3 0.2
2015-Mar-25 04:33N 56°37' E 012°48'8 7.7
2015-Mar-25 03:33N 56°39' E 012°34'8 7.8
2015-Mar-25 02:33N 56°41' E 012°20'8 7.9
2015-Mar-25 01:33N 56°43' E 012°06'8 8.2
2015-Mar-25 00:33N 56°46' E 011°52'8 7.9
2015-Mar-24 23:33N 56°53' E 011°46'9 8.5
2015-Mar-24 22:33N 57°01' E 011°40'8 8.3
2015-Mar-24 21:33N 57°09' E 011°35'8 8.2
2015-Mar-24 20:31N 57°17' E 011°29'8 8.0
2015-Mar-24 19:33N 57°24' E 011°24'8 7.7
2015-Mar-24 18:33N 57°30' E 011°15'7 6.8
2015-Mar-24 17:33N 57°35' E 011°08'8 7.5
2015-Mar-24 16:33N 57°41' E 010°58'8 7.6
2015-Mar-24 15:33N 57°46' E 010°47'8 8.3
2015-Mar-24 14:33N 57°47' E 010°32'10 8.3
2015-Mar-24 13:19N 57°48' E 010°13'7 8.0
2015-Mar-24 12:28N 57°49' E 010°00'8 8.3
2015-Mar-24 11:30N 57°49' E 009°45'108 9.5
2015-Mar-24 00:09N 58°07' E 006°24'5 9.1
2015-Mar-23 23:33N 58°11' E 006°16'8 8.3
2015-Mar-23 22:33N 58°16' E 006°04'9 8.6
2015-Mar-23 21:32N 58°23' E 005°52'9 9.3
2015-Mar-23 20:32N 58°29' E 005°39'18 9.2
2015-Mar-23 18:33N 58°44' E 005°20'9 9.2
2015-Mar-23 17:33N 58°51' E 005°10'9 9.4
2015-Mar-23 16:33N 58°59' E 005°00'10 9.7
2015-Mar-23 15:29N 59°08' E 004°50'  
2015-Mar-20 22:17N 66°17' E 012°09'810.4
2015-Mar-20 21:33N 66°15' E 012°28'  
Track history (hours):
 
Tides and Currents Weather Stations Pressure Air Temp Water Temp Dewpoint Dewpoint Depression Visibility Wind Speed Wind Dir Waves Ship Positions

Jomi

Last reported at 2015-Mar-30 05:32 UTC. Time now 2015-Apr-02 06:36 UTC.
Position N 59°28' E 005°13'.

Length 88 m; draft 4.2 m.

Type: Cargo ship. MMSI: 309701000.

Date/timePositionNaut miles runAvg speedWind from/ knotsBaromVisibWave heightAir tempDewpointWater temp
2015-Mar-30 05:32N 59°28' E 005°13'1310.8
2015-Mar-30 04:17N 59°15' E 005°21'810.4
2015-Mar-30 03:33N 59°07' E 005°21'9 9.2
2015-Mar-30 02:33N 59°09' E 005°04'1110.7
2015-Mar-30 01:32N 59°16' E 004°47'2 0.2
2015-Mar-29 12:19N 59°17' E 004°43'7 9.3
2015-Mar-29 11:33N 59°10' E 004°47'9 8.9
2015-Mar-29 10:33N 59°02' E 004°57'9 8.9
2015-Mar-29 09:33N 58°55' E 005°06'9 9.2
2015-Mar-29 08:33N 58°47' E 005°15'1010.2
2015-Mar-29 07:33N 58°38' E 005°26'1110.7
2015-Mar-29 06:33N 58°30' E 005°37'1010.2
2015-Mar-29 05:33N 58°22' E 005°51'1010.4
2015-Mar-29 04:33N 58°15' E 006°05'1110.7
2015-Mar-29 03:32N 58°08' E 006°21'137 8.5
2015-Mar-28 11:26N 57°48' E 010°37'6 7.1
2015-Mar-28 10:33N 57°42' E 010°41'2 1.7
2015-Mar-28 09:10N 57°42' E 010°36'3 3.0
2015-Mar-28 08:16N 57°42' E 010°41'811.1
2015-Mar-28 07:33N 57°38' E 010°54'1212.2
2015-Mar-28 06:33N 57°32' E 011°14'1110.8
2015-Mar-28 05:33N 57°24' E 011°28'1110.5
2015-Mar-28 04:33N 57°15' E 011°35'1010.4
2015-Mar-28 03:33N 57°05' E 011°41'1010.2
2015-Mar-28 02:33N 56°55' E 011°47'10 9.5
2015-Mar-28 01:33N 56°46' E 011°54'1010.1
2015-Mar-28 00:33N 56°37' E 011°58'10 9.8
2015-Mar-27 23:33N 56°28' E 012°07'1010.3
2015-Mar-27 22:33N 56°20' E 012°18'1010.5
2015-Mar-27 21:33N 56°11' E 012°29'1110.8
2015-Mar-27 20:33N 56°02' E 012°40'10 9.8
2015-Mar-27 19:33N 55°53' E 012°44'1110.6
2015-Mar-27 18:33N 55°42' E 012°41'1010.1
2015-Mar-27 17:33N 55°32' E 012°43'1010.2
2015-Mar-27 16:33N 55°29' E 012°26'8 7.9
2015-Mar-27 15:31N 55°27' E 012°12'0 0.0
2015-Mar-27 14:25N 55°27' E 012°12'0 0.0
2015-Mar-27 13:31N 55°27' E 012°12'0 0.0
2015-Mar-27 12:31N 55°27' E 012°12'0 0.2
2015-Mar-27 11:33N 55°27' E 012°12'0 0.3
2015-Mar-27 10:33N 55°27' E 012°12'0 0.0
2015-Mar-27 09:24N 55°27' E 012°12'0 0.0
2015-Mar-27 08:33N 55°27' E 012°12'0 0.0
2015-Mar-27 07:27N 55°27' E 012°12'0 0.0
2015-Mar-27 05:28N 55°27' E 012°12'3 3.3
2015-Mar-27 04:33N 55°27' E 012°17'6 5.9
2015-Mar-27 03:33N 55°26' E 012°27'5 5.1
2015-Mar-27 02:33N 55°28' E 012°35'6 6.2
2015-Mar-27 01:33N 55°33' E 012°42'8 8.0
2015-Mar-27 00:33N 55°41' E 012°41'1010.0
2015-Mar-26 23:33N 55°51' E 012°40'1010.0
2015-Mar-26 22:33N 56°01' E 012°38'9 9.3
2015-Mar-26 21:33N 56°08' E 012°28'10 9.6
2015-Mar-26 20:33N 56°18' E 012°23'1010.4
2015-Mar-26 19:33N 56°27' E 012°29'1110.5
2015-Mar-26 18:33N 56°35' E 012°43'6 6.3
2015-Mar-26 17:31N 56°39' E 012°51'0 0.0
2015-Mar-25 17:10N 56°39' E 012°51'3 0.2
2015-Mar-25 04:33N 56°37' E 012°48'8 7.7
2015-Mar-25 03:33N 56°39' E 012°34'8 7.8
2015-Mar-25 02:33N 56°41' E 012°20'8 7.9
2015-Mar-25 01:33N 56°43' E 012°06'8 8.2
2015-Mar-25 00:33N 56°46' E 011°52'8 7.9
2015-Mar-24 23:33N 56°53' E 011°46'9 8.5
2015-Mar-24 22:33N 57°01' E 011°40'8 8.3
2015-Mar-24 21:33N 57°09' E 011°35'8 8.2
2015-Mar-24 20:31N 57°17' E 011°29'8 8.0
2015-Mar-24 19:33N 57°24' E 011°24'8 7.7
2015-Mar-24 18:33N 57°30' E 011°15'7 6.8
2015-Mar-24 17:33N 57°35' E 011°08'8 7.5
2015-Mar-24 16:33N 57°41' E 010°58'8 7.6
2015-Mar-24 15:33N 57°46' E 010°47'8 8.3
2015-Mar-24 14:33N 57°47' E 010°32'10 8.3
2015-Mar-24 13:19N 57°48' E 010°13'7 8.0
2015-Mar-24 12:28N 57°49' E 010°00'8 8.3
2015-Mar-24 11:30N 57°49' E 009°45'108 9.5
2015-Mar-24 00:09N 58°07' E 006°24'5 9.1
2015-Mar-23 23:33N 58°11' E 006°16'8 8.3
2015-Mar-23 22:33N 58°16' E 006°04'9 8.6
2015-Mar-23 21:32N 58°23' E 005°52'9 9.3
2015-Mar-23 20:32N 58°29' E 005°39'18 9.2
2015-Mar-23 18:33N 58°44' E 005°20'9 9.2
2015-Mar-23 17:33N 58°51' E 005°10'9 9.4
2015-Mar-23 16:33N 58°59' E 005°00'10 9.7
2015-Mar-23 15:29N 59°08' E 004°50'  
2015-Mar-20 22:17N 66°17' E 012°09'810.4
2015-Mar-20 21:33N 66°15' E 012°28'  

Dump ship's entire track history